Time;durP1;ratioP1;P1;durP2;ratioP2;P2;SDS_P1;SDS_P2;PMS_P1;PMS_P2;Temp;Humidity;BMP_temperature;BMP_pressure;BME280_temperature;BME280_humidity;BME280_pressure;Samples;Min_cycle;Max_cycle;Signal;HPM_P1;HPM_P2
2021/01/29 00:00:46;;;;;;;10.50;5.92;;;;;;;-0.15;89.34;94986.53;1768459;80;21137;-91
2021/01/29 00:03:17;;;;;;;10.70;6.12;;;;;;;-0.12;89.19;94999.08;1776845;79;21101;-92
2021/01/29 00:05:52;;;;;;;7.72;2.52;;;;;;;-0.10;89.25;94992.31;1778309;80;21510;-91
2021/01/29 00:08:21;;;;;;;10.75;4.87;;;;;;;-0.07;89.27;94985.30;1774892;80;21473;-91
2021/01/29 00:10:51;;;;;;;6.25;3.52;;;;;;;-0.07;89.27;94985.30;1806066;78;21102;-92
2021/01/29 00:13:19;;;;;;;9.55;5.00;;;;;;;-0.06;89.44;94990.77;1784871;78;21133;-92
2021/01/29 00:15:46;;;;;;;7.10;4.10;;;;;;;-0.08;89.38;94995.45;1792716;78;21125;-91
2021/01/29 00:18:14;;;;;;;10.78;6.08;;;;;;;-0.09;89.32;94990.75;1813751;78;21108;-92
2021/01/29 00:20:42;;;;;;;10.23;5.87;;;;;;;-0.08;89.26;94991.02;1779768;78;21148;-91
2021/01/29 00:23:09;;;;;;;9.80;5.33;;;;;;;-0.20;88.93;94965.67;1811297;78;21121;-93
2021/01/29 00:25:42;;;;;;;9.28;4.97;;;;;;;-0.11;89.32;94990.23;1784308;78;21146;-92
2021/01/29 00:28:09;;;;;;;6.58;4.33;;;;;;;-0.10;89.45;94991.80;1788141;78;21110;-91
2021/01/29 00:30:37;;;;;;;10.60;6.62;;;;;;;-0.08;89.42;94996.23;1808493;78;21107;-91
2021/01/29 00:33:07;;;;;;;11.22;6.40;;;;;;;-0.21;89.24;94984.16;1809719;78;21475;-91
2021/01/29 00:35:36;;;;;;;10.43;6.12;;;;;;;-0.21;89.24;94984.16;1802210;78;21225;-92
2021/01/29 00:38:05;;;;;;;10.98;6.10;;;;;;;-0.08;89.41;95003.27;1786508;78;21111;-92
2021/01/29 00:40:34;;;;;;;11.43;6.70;;;;;;;-0.11;89.39;94996.73;1789265;78;21192;-91
2021/01/29 00:43:02;;;;;;;12.37;5.55;;;;;;;-0.12;89.39;94996.47;1779008;78;21136;-92
2021/01/29 00:45:33;;;;;;;8.20;4.75;;;;;;;-0.13;89.56;94992.82;1796709;78;21131;-92
2021/01/29 00:48:00;;;;;;;9.60;5.85;;;;;;;-0.16;89.72;94987.57;1790216;78;21532;-91
2021/01/29 00:50:28;;;;;;;12.93;6.87;;;;;;;-0.14;89.66;94993.34;1792755;79;21474;-92
2021/01/29 00:52:55;;;;;;;13.10;7.10;;;;;;;-0.14;89.46;94982.92;1790178;79;21448;-91
2021/01/29 00:55:24;;;;;;;12.37;6.67;;;;;;;-0.14;89.46;94982.92;1800858;79;21107;-91
2021/01/29 00:57:51;;;;;;;9.33;5.72;;;;;;;-0.13;89.57;94982.41;1806000;79;21512;-92
2021/01/29 01:00:20;;;;;;;11.22;5.78;;;;;;;-0.13;89.63;94979.80;1793871;79;21107;-91
2021/01/29 01:02:47;;;;;;;11.18;6.00;;;;;;;-0.14;89.57;94966.48;1798728;79;21474;-91
2021/01/29 01:05:18;;;;;;;11.35;5.80;;;;;;;-0.11;89.41;94969.39;1789578;78;21627;-90
2021/01/29 01:07:46;;;;;;;11.50;6.40;;;;;;;-0.11;89.41;94969.39;1775493;80;21510;-93
2021/01/29 01:10:14;;;;;;;12.30;6.15;;;;;;;-0.11;89.51;94970.70;1794856;79;21513;-92
2021/01/29 01:12:41;;;;;;;8.05;4.70;;;;;;;-0.10;89.36;94980.08;1766277;80;21134;-91
2021/01/29 01:15:16;;;;;;;10.60;5.75;;;;;;;-0.10;89.42;94985.28;1774082;80;21111;-94
2021/01/29 01:17:44;;;;;;;8.20;5.60;;;;;;;-0.08;89.25;94983.73;1789442;80;21147;-92
2021/01/29 01:20:16;;;;;;;10.30;5.90;;;;;;;-0.06;89.21;94983.73;1785412;79;21117;-91
2021/01/29 01:22:43;;;;;;;6.53;3.75;;;;;;;-0.05;89.04;94988.43;1800381;79;21072;-91
2021/01/29 01:25:12;;;;;;;12.18;5.42;;;;;;;-0.12;89.25;94974.86;1787397;79;21176;-91
2021/01/29 01:27:39;;;;;;;8.65;4.97;;;;;;;0.03;89.02;94988.48;1795906;79;21504;-91
2021/01/29 01:30:11;;;;;;;10.10;6.00;;;;;;;0.03;89.02;94988.48;1803937;79;21507;-92
2021/01/29 01:32:39;;;;;;;9.28;5.90;;;;;;;0.03;88.95;94993.19;1807393;78;21136;-91
2021/01/29 01:35:07;;;;;;;6.65;4.17;;;;;;;0.08;88.88;94998.94;1805773;78;21172;-91
2021/01/29 01:37:35;;;;;;;9.08;5.12;;;;;;;0.08;88.89;94987.98;1778108;79;21467;-90
2021/01/29 01:40:04;;;;;;;9.10;5.05;;;;;;;0.03;88.71;94982.77;1789298;79;21515;-91
2021/01/29 01:42:31;;;;;;;8.98;5.37;;;;;;;0.08;88.67;94980.69;1808159;79;21141;-91
2021/01/29 01:44:58;;;;;;;8.63;5.80;;;;;;;0.05;88.73;94985.89;1784236;79;21130;-91
2021/01/29 01:47:32;;;;;;;9.20;5.78;;;;;;;0.03;88.72;94978.86;1789921;79;21131;-92
2021/01/29 01:50:14;;;;;;;11.45;6.25;;;;;;;0.03;88.68;94981.45;1798156;78;21091;-92
2021/01/29 01:52:43;;;;;;;11.68;6.05;;;;;;;0.01;88.69;94978.33;1809137;79;21443;-91
2021/01/29 01:55:23;;;;;;;9.80;6.10;;;;;;;0.00;88.68;94983.27;1807967;79;21163;-92
2021/01/29 01:57:54;;;;;;;12.00;6.35;;;;;;;-0.02;88.71;94976.98;1811954;79;21495;-91
2021/01/29 02:00:27;;;;;;;7.72;5.00;;;;;;;-0.03;88.79;94973.33;1791384;78;21131;-90
2021/01/29 02:03:03;;;;;;;9.88;5.90;;;;;;;-0.05;88.78;94981.92;1804185;79;21088;-89
2021/01/29 02:05:37;;;;;;;6.35;3.77;;;;;;;-0.05;88.82;94993.64;1794104;79;21548;-92
2021/01/29 02:08:11;;;;;;;9.60;4.85;;;;;;;-0.04;88.80;95004.32;1816516;79;21147;-92
2021/01/29 02:10:39;;;;;;;10.55;6.47;;;;;;;-0.04;88.74;94993.38;1784825;79;21095;-92
2021/01/29 02:13:09;;;;;;;10.43;5.62;;;;;;;-0.05;88.62;94995.72;1774158;79;21514;-94
2021/01/29 02:15:45;;;;;;;8.13;5.05;;;;;;;-0.04;88.61;95001.72;1780077;80;21112;-90
2021/01/29 02:19:07;;;;;;;10.65;6.20;;;;;;;-0.03;88.51;95004.59;1787610;79;21165;-92
2021/01/29 02:21:56;;;;;;;7.95;4.65;;;;;;;0.01;88.19;95005.67;1762562;80;21535;-91
2021/01/29 02:25:00;;;;;;;8.33;5.45;;;;;;;0.01;88.19;95005.67;1769533;79;21098;-93
2021/01/29 02:27:58;;;;;;;11.10;5.25;;;;;;;0.03;88.10;95003.60;1790167;79;21142;-92
2021/01/29 02:30:47;;;;;;;7.55;4.80;;;;;;;0.04;88.02;94998.66;1769556;79;21136;-91
2021/01/29 02:33:40;;;;;;;7.97;5.33;;;;;;;0.04;87.94;94994.75;1783618;79;21475;-92
2021/01/29 02:36:33;;;;;;;8.08;5.40;;;;;;;0.05;87.82;94987.72;1765684;79;21482;-91
2021/01/29 02:39:24;;;;;;;9.48;5.58;;;;;;;0.04;87.76;94988.23;1773387;80;21538;-92
2021/01/29 02:42:14;;;;;;;6.20;3.15;;;;;;;0.06;87.71;94995.80;1777984;79;21494;-92
2021/01/29 02:45:18;;;;;;;7.55;5.40;;;;;;;0.07;87.59;95003.36;1765813;80;21107;-91
2021/01/29 02:48:02;;;;;;;4.47;3.08;;;;;;;0.09;87.57;95004.41;1788506;78;21143;-89
2021/01/29 02:51:11;;;;;;;8.03;4.92;;;;;;;0.09;87.53;95011.70;1794296;79;21115;-92
2021/01/29 02:53:53;;;;;;;7.50;5.28;;;;;;;0.07;87.60;95021.59;1801466;79;21114;-93
2021/01/29 02:56:34;;;;;;;10.48;6.42;;;;;;;0.07;87.60;95021.59;1785193;79;21556;-92
2021/01/29 02:59:24;;;;;;;12.33;6.17;;;;;;;0.05;87.64;95022.37;1774076;79;21309;-90
2021/01/29 03:02:03;;;;;;;10.25;5.87;;;;;;;0.04;87.62;95013.50;1797047;80;21115;-92
2021/01/29 03:04:38;;;;;;;11.20;6.25;;;;;;;0.02;87.63;95022.88;1774655;80;21108;-92
2021/01/29 03:10:16;;;;;;;9.20;6.00;;;;;;;0.06;87.82;95023.16;1875777;76;22438;-93
2021/01/29 03:12:51;;;;;;;9.53;6.20;;;;;;;-0.01;87.96;95031.95;1822189;77;21170;-91
2021/01/29 03:15:35;;;;;;;7.60;4.05;;;;;;;0.02;88.00;95046.84;1833183;77;21106;-91
2021/01/29 03:18:14;;;;;;;9.45;5.70;;;;;;;0.06;88.14;95046.59;1836648;77;21148;-91
2021/01/29 03:20:46;;;;;;;9.00;5.67;;;;;;;0.04;88.20;95055.19;1844978;76;21067;-93
2021/01/29 03:23:21;;;;;;;7.35;4.53;;;;;;;-0.02;88.35;95062.95;1854401;76;21056;-91
2021/01/29 03:25:53;;;;;;;6.35;4.60;;;;;;;-0.04;88.52;95048.09;1753778;79;21103;-94
2021/01/29 03:28:28;;;;;;;7.58;4.25;;;;;;;-0.08;88.84;95052.23;1792238;79;21196;-91
2021/01/29 03:30:59;;;;;;;6.92;4.10;;;;;;;-0.12;88.98;95055.08;1796600;79;21084;-91
2021/01/29 03:33:30;;;;;;;6.80;3.83;;;;;;;-0.19;89.30;95057.09;1778787;80;21108;-93
2021/01/29 03:36:05;;;;;;;6.03;3.45;;;;;;;-0.18;89.34;95061.26;1811502;79;21483;-92
2021/01/29 03:38:49;;;;;;;6.00;4.12;;;;;;;-0.20;89.55;95062.55;1793126;80;21116;-94
2021/01/29 03:41:29;;;;;;;8.60;5.58;;;;;;;-0.23;89.67;95072.95;1773790;80;21120;-92
2021/01/29 03:44:51;;;;;;;7.53;5.53;;;;;;;-0.28;89.79;95076.82;1796466;80;21119;-92
2021/01/29 03:47:26;;;;;;;10.15;6.05;;;;;;;-0.31;89.88;95077.30;1767529;80;21242;-93
2021/01/29 03:50:19;;;;;;;7.20;4.05;;;;;;;-0.32;90.02;95070.52;1753801;80;21132;-93
2021/01/29 03:53:06;;;;;;;7.37;5.10;;;;;;;-0.34;90.22;95069.98;1767680;80;21134;-92
2021/01/29 03:55:48;;;;;;;8.70;5.50;;;;;;;-0.37;90.35;95071.27;1781278;79;21510;-93
2021/01/29 03:58:33;;;;;;;10.00;5.00;;;;;;;-0.39;90.27;95072.55;1766842;80;21124;-94
2021/01/29 04:01:05;;;;;;;5.60;3.70;;;;;;;-0.40;90.34;95067.08;1772950;80;21720;-92
2021/01/29 04:03:40;;;;;;;8.35;4.87;;;;;;;-0.43;90.55;95072.75;1773884;80;21100;-92
2021/01/29 04:06:13;;;;;;;7.40;4.03;;;;;;;-0.45;90.67;95087.84;1779886;79;21122;-92
2021/01/29 04:08:55;;;;;;;10.23;6.30;;;;;;;-0.45;90.64;95082.63;1773746;79;21139;-92
2021/01/29 04:11:27;;;;;;;10.13;6.22;;;;;;;-0.45;90.37;95093.04;1779577;79;21094;-92
2021/01/29 04:14:02;;;;;;;10.65;6.78;;;;;;;-0.41;90.09;95091.54;1773720;79;21283;-92
2021/01/29 04:16:37;;;;;;;10.15;4.90;;;;;;;-0.40;89.93;95093.89;1796727;79;21115;-93
2021/01/29 04:19:12;;;;;;;11.80;7.25;;;;;;;-0.39;89.71;95092.86;1782415;80;21171;-93
2021/01/29 04:21:44;;;;;;;10.90;6.20;;;;;;;-0.40;89.56;95102.22;1782173;79;21125;-92
2021/01/29 04:24:24;;;;;;;8.08;4.33;;;;;;;-0.42;89.52;95098.56;1800465;79;21122;-92
2021/01/29 04:26:59;;;;;;;10.30;5.40;;;;;;;-0.41;89.23;95101.44;1787010;79;21115;-92
2021/01/29 04:29:35;;;;;;;12.33;6.40;;;;;;;-0.42;89.03;95096.48;1785421;79;21121;-93
2021/01/29 04:32:06;;;;;;;14.87;7.55;;;;;;;-0.44;88.94;95107.63;1772417;80;21160;-92
2021/01/29 04:34:41;;;;;;;10.65;5.45;;;;;;;-0.45;88.74;95109.96;1770949;80;21093;-92
2021/01/29 04:37:16;;;;;;;15.20;8.35;;;;;;;-0.47;88.76;95119.32;1765261;80;21072;-94
2021/01/29 04:39:47;;;;;;;17.80;9.33;;;;;;;-0.50;88.55;95119.03;1799994;79;21100;-92
2021/01/29 04:42:56;;;;;;;16.62;9.35;;;;;;;-0.53;88.24;95115.63;1784038;80;21119;-92
2021/01/29 04:45:54;;;;;;;15.90;9.18;;;;;;;-0.60;87.80;95106.17;1772507;80;21127;-91
2021/01/29 04:48:38;;;;;;;10.08;5.95;;;;;;;-0.66;87.32;95105.86;1792279;80;21092;-92
2021/01/29 04:51:46;;;;;;;14.28;9.00;;;;;;;-0.77;86.98;95126.80;1792236;80;21112;-93
2021/01/29 04:54:44;;;;;;;19.02;9.00;;;;;;;-0.79;86.97;95121.06;1783358;80;21123;-92
2021/01/29 04:57:53;;;;;;;16.40;10.72;;;;;;;-0.88;86.65;95112.10;1765006;80;21115;-92
2021/01/29 05:00:53;;;;;;;17.25;9.33;;;;;;;-0.95;86.70;95116.98;1786843;80;21157;-91
2021/01/29 05:04:08;;;;;;;16.45;9.03;;;;;;;-0.98;86.79;95120.08;1791529;80;21154;-91
2021/01/29 05:07:03;;;;;;;14.63;6.83;;;;;;;-0.98;86.93;95110.19;1788595;79;21103;-93
2021/01/29 05:09:52;;;;;;;9.80;5.35;;;;;;;-1.02;86.85;95120.27;1800555;78;21161;-90
2021/01/29 05:12:53;;;;;;;17.15;8.35;;;;;;;-1.05;86.58;95122.58;1787290;80;21138;-92
2021/01/29 05:15:40;;;;;;;15.55;8.53;;;;;;;-1.07;86.35;95109.03;1762601;79;21411;-92
2021/01/29 05:18:46;;;;;;;15.53;8.40;;;;;;;-1.06;86.33;95110.59;1760803;80;21130;-90
2021/01/29 05:21:49;;;;;;;12.90;6.87;;;;;;;-1.09;85.88;95109.79;1779584;80;21104;-90
2021/01/29 05:24:24;;;;;;;10.75;7.05;;;;;;;-1.12;85.51;95102.47;1782977;80;21144;-90
2021/01/29 05:27:16;;;;;;;18.60;9.45;;;;;;;-1.18;85.29;95115.13;1782108;80;21463;-91
2021/01/29 05:30:03;;;;;;;13.98;7.80;;;;;;;-1.23;85.52;95115.34;1795167;78;21201;-92
2021/01/29 05:33:02;;;;;;;22.22;11.18;;;;;;;-1.18;85.67;95115.13;1773309;80;21504;-90
2021/01/29 05:36:01;;;;;;;11.75;6.75;;;;;;;-1.19;85.52;95114.34;1781603;80;21487;-91
2021/01/29 05:38:46;;;;;;;10.35;6.80;;;;;;;-1.17;85.46;95114.09;1778989;80;21120;-91
2021/01/29 05:41:55;;;;;;;16.15;9.58;;;;;;;-1.21;85.18;95098.20;1780003;79;21181;-90
2021/01/29 05:45:01;;;;;;;18.12;11.38;;;;;;;-1.23;85.25;95095.84;1789038;79;21121;-91
2021/01/29 05:47:49;;;;;;;14.23;8.25;;;;;;;-1.21;85.36;95104.18;1763068;80;21149;-90
2021/01/29 05:50:53;;;;;;;10.75;7.10;;;;;;;-1.20;85.34;95103.67;1783773;79;21116;-89
2021/01/29 05:53:59;;;;;;;16.10;8.88;;;;;;;-1.18;85.28;95101.61;1780725;80;21536;-90
2021/01/29 05:56:54;;;;;;;13.78;7.45;;;;;;;-1.21;85.27;95108.08;1774386;80;21131;-90
2021/01/29 05:59:56;;;;;;;20.48;11.05;;;;;;;-1.22;85.18;95107.03;1768995;80;21484;-91
2021/01/29 06:03:07;;;;;;;14.50;8.50;;;;;;;-1.26;85.20;95112.44;1765134;80;21510;-90
2021/01/29 06:06:14;;;;;;;14.70;9.48;;;;;;;-1.29;85.29;95111.08;1797721;79;21116;-91
2021/01/29 06:09:04;;;;;;;19.98;11.18;;;;;;;-1.31;85.36;95109.24;1777469;80;21153;-92
2021/01/29 06:12:27;;;;;;;17.48;8.28;;;;;;;-1.32;85.58;95110.78;1787988;79;21119;-90
2021/01/29 06:15:17;;;;;;;23.45;10.93;;;;;;;-1.35;85.64;95118.55;1783215;79;21140;-92
2021/01/29 06:18:15;;;;;;;21.73;12.53;;;;;;;-1.33;85.70;95133.91;1780055;79;21137;-91
2021/01/29 06:21:07;;;;;;;20.35;10.25;;;;;;;-1.32;85.55;95141.98;1770818;79;21093;-90
2021/01/29 06:24:00;;;;;;;17.67;10.03;;;;;;;-1.29;85.48;95140.98;1778141;79;21120;-91
2021/01/29 06:27:07;;;;;;;15.38;8.95;;;;;;;-1.24;85.17;95138.47;1788097;79;21101;-90
2021/01/29 06:30:14;;;;;;;17.05;9.55;;;;;;;-1.28;84.76;95137.35;1750415;79;21112;-91
2021/01/29 06:32:56;;;;;;;18.77;10.50;;;;;;;-1.31;84.52;95133.94;1782455;79;21078;-91
2021/01/29 06:35:37;;;;;;;14.65;7.78;;;;;;;-1.33;84.51;95135.99;1787401;79;21520;-90
2021/01/29 06:42:01;;;;;;;16.10;9.73;;;;;;;-1.36;84.38;95139.08;1876335;76;23012;-89
2021/01/29 06:44:50;;;;;;;;;;;;;;;-1.41;84.23;95146.78;1810509;77;21453;-91
2021/01/29 06:47:51;;;;;;;13.55;8.05;;;;;;;-1.41;84.03;95144.19;1835842;76;20131;-89
2021/01/29 06:50:27;;;;;;;13.53;8.55;;;;;;;-1.45;83.52;95139.20;1845453;76;21087;-90
2021/01/29 06:53:17;;;;;;;17.67;9.05;;;;;;;-1.46;83.48;95132.95;1842216;76;21099;-91
2021/01/29 06:56:11;;;;;;;15.05;9.10;;;;;;;-1.45;83.10;95136.60;1842966;77;21131;-91
2021/01/29 06:59:02;;;;;;;16.17;9.85;;;;;;;-1.44;82.76;95144.67;1848340;76;21539;-90
2021/01/29 07:01:41;;;;;;;17.85;9.20;;;;;;;-1.43;82.60;95144.94;1846779;76;21127;-91
2021/01/29 07:04:42;;;;;;;14.50;7.70;;;;;;;-1.38;82.22;95145.03;1819220;77;21083;-90
2021/01/29 07:07:33;;;;;;;16.85;10.98;;;;;;;-1.39;81.93;95143.46;1840819;77;21494;-90
2021/01/29 07:10:45;;;;;;;15.60;8.05;;;;;;;-1.41;81.82;95136.39;1866166;76;21104;-90
2021/01/29 07:13:53;;;;;;;15.08;8.38;;;;;;;-1.42;81.59;95134.03;1784854;79;21434;-90
2021/01/29 07:16:42;;;;;;;18.25;9.35;;;;;;;-1.43;81.16;95133.25;1845633;76;21604;-91
2021/01/29 07:19:33;;;;;;;15.25;7.42;;;;;;;-1.47;80.34;95128.27;1837007;77;21076;-90
2021/01/29 07:22:40;;;;;;;14.58;8.53;;;;;;;-1.53;79.70;95125.33;1851227;76;21122;-89
2021/01/29 07:25:21;;;;;;;13.65;6.53;;;;;;;-1.55;78.85;95124.75;1865040;76;21214;-91
2021/01/29 07:28:28;;;;;;;13.50;7.05;;;;;;;-1.59;78.41;95115.87;1831348;77;21479;-90
2021/01/29 07:31:25;;;;;;;14.25;7.80;;;;;;;-1.62;78.16;95114.55;1828285;76;21150;-92
2021/01/29 07:34:22;;;;;;;12.93;7.67;;;;;;;-1.62;78.13;95116.35;1857374;76;21084;-90
2021/01/29 07:37:22;;;;;;;21.62;11.28;;;;;;;-1.62;78.15;95112.45;1850512;77;21212;-91
2021/01/29 07:40:12;;;;;;;16.23;8.67;;;;;;;-1.56;78.43;95115.39;1855876;76;21154;-89
2021/01/29 07:43:25;;;;;;;21.80;11.50;;;;;;;-1.46;78.50;95110.85;1858790;76;21506;-90
2021/01/29 07:46:12;;;;;;;17.15;9.53;;;;;;;-1.12;78.51;95104.56;1846951;76;21095;-90
2021/01/29 07:49:00;;;;;;;16.45;8.55;;;;;;;-0.34;77.05;95092.11;1811387;76;21159;-90
2021/01/29 07:51:49;;;;;;;18.12;10.20;;;;;;;-0.34;77.05;95092.11;1851485;76;21091;-91
2021/01/29 07:54:27;;;;;;;15.15;9.08;;;;;;;-0.39;75.96;95092.08;1845453;76;21488;-90
2021/01/29 07:57:27;;;;;;;14.45;8.50;;;;;;;-0.54;75.26;95087.51;1820470;76;21478;-90
2021/01/29 08:00:38;;;;;;;14.78;8.93;;;;;;;-0.34;74.73;95084.30;1839733;76;21145;-89
2021/01/29 08:03:37;;;;;;;;;;;;;;;-0.29;73.94;95075.22;1830930;77;21147;-90
2021/01/29 08:06:22;;;;;;;12.63;7.50;;;;;;;0.04;72.52;95072.13;1848897;76;20180;-91
2021/01/29 08:09:01;;;;;;;10.50;6.25;;;;;;;0.62;72.77;95068.58;1831903;77;21152;-91
2021/01/29 08:11:33;;;;;;;12.17;7.13;;;;;;;0.82;69.76;95066.05;1842839;76;21108;-90
2021/01/29 08:14:06;;;;;;;11.15;6.42;;;;;;;0.79;67.58;95059.27;1817009;76;21555;-90
2021/01/29 08:16:54;;;;;;;11.48;6.97;;;;;;;0.77;67.36;95053.52;1857194;76;21140;-90
2021/01/29 08:19:29;;;;;;;11.25;6.75;;;;;;;0.69;67.55;95042.25;1833467;77;21494;-91
2021/01/29 08:22:25;;;;;;;11.57;6.90;;;;;;;0.74;67.02;95045.69;1851924;76;21481;-88
2021/01/29 08:25:17;;;;;;;11.80;6.37;;;;;;;0.77;66.55;95039.17;1816679;77;21132;-92
2021/01/29 08:28:22;;;;;;;13.13;7.20;;;;;;;0.39;66.05;95042.37;1845820;76;21095;-92
2021/01/29 08:31:09;;;;;;;10.15;5.97;;;;;;;0.40;67.01;95044.45;1835951;76;21076;-90
2021/01/29 08:33:48;;;;;;;13.70;6.25;;;;;;;0.46;65.66;95042.94;1864331;76;21124;-91
2021/01/29 08:36:47;;;;;;;8.18;5.75;;;;;;;0.22;65.83;95041.23;1844050;77;21311;-90
2021/01/29 08:39:29;;;;;;;10.78;6.28;;;;;;;0.12;65.99;95034.64;1798337;78;21507;-91
2021/01/29 08:42:16;;;;;;;8.00;5.33;;;;;;;-0.23;66.76;95034.41;1768560;80;21281;-91
2021/01/29 08:45:17;;;;;;;8.70;5.00;;;;;;;-0.44;66.76;95027.71;1755270;81;21110;-89
2021/01/29 08:48:14;;;;;;;12.90;6.42;;;;;;;-0.70;67.31;95023.34;1802946;78;21119;-91
2021/01/29 08:51:10;;;;;;;12.82;7.08;;;;;;;-0.73;67.97;95033.70;1801125;78;21080;-91
2021/01/29 08:54:08;;;;;;;13.75;8.33;;;;;;;-0.84;68.14;95026.06;1788729;80;21103;-90
2021/01/29 08:57:14;;;;;;;11.57;7.53;;;;;;;-0.88;68.89;95029.64;1783179;80;21111;-90
2021/01/29 08:59:42;;;;;;;12.88;6.42;;;;;;;-0.89;69.18;95041.08;1761765;80;21107;-91
2021/01/29 09:02:50;;;;;;;13.30;7.90;;;;;;;-0.87;69.13;95040.31;1774740;80;21144;-90
2021/01/29 09:05:24;;;;;;;12.23;6.50;;;;;;;-0.91;69.54;95049.66;1805603;78;21502;-91
2021/01/29 09:08:00;;;;;;;12.95;7.40;;;;;;;-0.99;69.48;95044.88;1772392;80;21146;-91
2021/01/29 09:10:56;;;;;;;13.13;7.58;;;;;;;-1.15;69.63;95025.72;1770426;80;21214;-91
2021/01/29 09:13:25;;;;;;;13.68;7.85;;;;;;;-1.02;69.99;95044.84;1800072;78;21117;-91
2021/01/29 09:16:12;;;;;;;19.10;10.00;;;;;;;-0.91;70.44;95049.66;1791556;79;21139;-88
2021/01/29 09:18:51;;;;;;;19.50;9.05;;;;;;;-0.73;71.08;95056.33;1791441;79;21520;-91
2021/01/29 09:21:42;;;;;;;17.60;9.70;;;;;;;-0.29;71.65;95054.39;1802943;78;21099;-91
2021/01/29 09:24:36;;;;;;;15.40;9.50;;;;;;;-0.03;71.06;95049.66;1789219;78;21140;-91
2021/01/29 09:27:36;;;;;;;17.90;10.13;;;;;;;0.18;70.63;95036.27;1760553;80;21193;-91
2021/01/29 09:30:14;;;;;;;17.20;10.37;;;;;;;0.56;71.07;95046.91;1799595;78;21156;-92
2021/01/29 09:32:52;;;;;;;21.12;12.63;;;;;;;0.81;70.06;95044.92;1765096;80;21800;-91
2021/01/29 09:35:42;;;;;;;31.35;17.92;;;;;;;0.76;68.87;95043.61;1792266;80;21482;-93
2021/01/29 09:38:13;;;;;;;17.67;9.53;;;;;;;0.63;68.74;95042.77;1776922;80;21661;-92
2021/01/29 09:41:14;;;;;;;13.90;8.65;;;;;;;0.53;67.77;95036.97;1817086;77;21475;-90
2021/01/29 09:43:50;;;;;;;17.77;10.20;;;;;;;0.36;67.72;95027.23;1783967;79;21119;-92
2021/01/29 09:46:25;;;;;;;16.73;11.15;;;;;;;0.28;68.22;95026.40;1799088;79;21120;-92
2021/01/29 09:49:04;;;;;;;17.67;9.73;;;;;;;0.31;68.10;95023.31;1784016;79;21100;-91
2021/01/29 09:52:07;;;;;;;15.08;8.95;;;;;;;0.37;67.75;95022.81;1802144;79;21135;-92
2021/01/29 09:54:45;;;;;;;17.27;9.75;;;;;;;0.38;66.91;95019.95;1778037;79;22515;-91
2021/01/29 10:00:35;;;;;;;16.65;10.58;;;;;;;1.01;68.24;95001.17;1870899;76;23401;-92
2021/01/29 10:03:25;;;;;;;17.82;9.13;;;;;;;1.16;67.24;95009.04;1809344;77;21122;-94
2021/01/29 10:05:58;;;;;;;17.77;9.83;;;;;;;1.34;65.97;95004.36;1810364;77;21093;-92
2021/01/29 10:08:42;;;;;;;14.78;8.90;;;;;;;1.36;65.36;94998.36;1842343;77;21479;-91
2021/01/29 10:11:14;;;;;;;15.85;8.85;;;;;;;1.36;64.58;95000.45;1868764;76;21138;-92
2021/01/29 10:13:50;;;;;;;15.03;9.75;;;;;;;1.34;64.96;95002.53;1806439;78;21119;-92
2021/01/29 10:16:50;;;;;;;16.45;9.33;;;;;;;1.45;65.45;94998.12;1776512;80;21084;-91
2021/01/29 10:19:41;;;;;;;17.32;9.53;;;;;;;1.63;66.13;94996.81;1755952;80;21159;-92
2021/01/29 10:22:38;;;;;;;15.43;9.35;;;;;;;2.00;66.50;94986.88;1788106;79;21100;-92
2021/01/29 10:25:19;;;;;;;16.62;9.70;;;;;;;2.19;64.03;94977.16;1774400;80;21261;-92
2021/01/29 10:28:04;;;;;;;17.35;10.23;;;;;;;1.92;63.19;94985.30;1775824;80;21265;-91
2021/01/29 10:31:01;;;;;;;16.20;9.65;;;;;;;1.71;64.86;94991.08;1877945;75;23395;-93
2021/01/29 10:33:38;;;;;;;16.95;10.00;;;;;;;1.64;64.37;94990.02;1825991;77;21072;-92
2021/01/29 10:36:13;;;;;;;17.45;10.00;;;;;;;1.55;64.16;94992.91;1834622;77;21503;-94
2021/01/29 10:39:01;;;;;;;19.00;10.98;;;;;;;1.48;63.68;94988.45;1825882;77;21301;-93
2021/01/29 10:41:57;;;;;;;18.40;9.40;;;;;;;1.68;64.68;94987.14;1847474;77;21463;-93
2021/01/29 10:44:32;;;;;;;20.68;10.58;;;;;;;1.90;64.64;94979.04;1801707;80;21111;-93
2021/01/29 10:47:22;;;;;;;17.32;9.55;;;;;;;2.07;63.11;94978.75;1780645;80;21126;-92
2021/01/29 10:50:21;;;;;;;17.12;10.70;;;;;;;1.82;62.56;94965.19;1770021;80;21083;-93
2021/01/29 10:53:19;;;;;;;18.40;10.00;;;;;;;1.82;62.56;94965.19;1778324;80;21084;-92
2021/01/29 10:56:13;;;;;;;15.50;10.00;;;;;;;1.85;62.25;94967.83;1789288;79;21460;-94
2021/01/29 10:58:57;;;;;;;17.15;10.25;;;;;;;1.90;62.87;94967.28;1769078;80;21098;-93
2021/01/29 11:01:38;;;;;;;17.75;10.13;;;;;;;2.12;63.19;94955.23;1803287;78;21092;-93
2021/01/29 11:04:27;;;;;;;18.57;10.32;;;;;;;1.93;61.70;94945.06;1783285;79;21119;-94
2021/01/29 11:07:04;;;;;;;21.40;10.08;;;;;;;1.65;61.17;94943.27;1792844;79;21120;-93
2021/01/29 11:09:39;;;;;;;18.65;10.85;;;;;;;1.41;61.98;94946.16;1792876;79;21123;-91
2021/01/29 11:12:36;;;;;;;15.53;8.48;;;;;;;1.34;62.99;94935.19;1785892;79;21156;-95
2021/01/29 11:15:26;;;;;;;19.32;10.88;;;;;;;1.29;62.47;94929.45;1763424;80;21512;-93
2021/01/29 11:18:01;;;;;;;19.90;11.63;;;;;;;1.16;62.98;94926.05;1773632;80;21135;-94
2021/01/29 11:20:33;;;;;;;21.33;11.53;;;;;;;1.23;63.55;94913.51;1808294;78;21103;-92
2021/01/29 11:23:29;;;;;;;21.65;12.07;;;;;;;1.16;63.58;94912.47;1793915;79;21139;-91
2021/01/29 11:26:16;;;;;;;22.35;12.20;;;;;;;1.06;64.08;94907.23;1786508;79;21253;-93
2021/01/29 11:29:10;;;;;;;16.17;11.55;;;;;;;1.13;64.37;94905.70;1806379;79;21162;-93
2021/01/29 11:31:55;;;;;;;16.97;9.70;;;;;;;1.22;64.71;94900.72;1770564;80;21283;-91
2021/01/29 11:34:30;;;;;;;18.55;11.18;;;;;;;1.42;64.85;94898.12;1778271;79;21118;-92
2021/01/29 11:37:24;;;;;;;20.52;12.88;;;;;;;1.57;64.77;94899.94;1796770;79;21088;-92
2021/01/29 11:40:33;;;;;;;24.12;12.43;;;;;;;1.74;65.26;94894.68;1781458;80;21503;-92
2021/01/29 11:43:39;;;;;;;22.80;11.70;;;;;;;2.00;65.06;94886.78;1780755;80;21131;-92
2021/01/29 11:46:17;;;;;;;21.25;12.18;;;;;;;2.09;64.88;94885.95;1785900;79;21131;-94
2021/01/29 11:49:13;;;;;;;22.85;13.00;;;;;;;2.34;65.16;94881.16;1784132;79;21109;-92
2021/01/29 11:52:08;;;;;;;24.30;13.15;;;;;;;2.70;65.39;94869.22;1782480;79;21599;-93
2021/01/29 11:54:52;;;;;;;19.92;12.68;;;;;;;2.93;64.84;94865.13;1782325;79;21108;-93
2021/01/29 11:57:55;;;;;;;21.85;11.68;;;;;;;3.02;64.47;94856.18;1789174;79;21172;-93
2021/01/29 12:00:45;;;;;;;18.98;11.48;;;;;;;2.99;63.52;94856.20;1778114;79;21138;-92
2021/01/29 12:03:36;;;;;;;21.00;12.15;;;;;;;2.92;63.71;94852.57;1770575;80;21465;-94
2021/01/29 12:06:26;;;;;;;18.85;11.85;;;;;;;2.90;63.64;94846.83;1747550;79;21165;-93
2021/01/29 12:09:11;;;;;;;21.27;11.63;;;;;;;2.92;63.73;94848.64;1769929;79;21107;-91
2021/01/29 12:12:05;;;;;;;25.43;15.60;;;;;;;2.98;64.04;94842.34;1780876;79;21099;-92
2021/01/29 12:15:14;;;;;;;20.52;13.05;;;;;;;3.02;64.01;94832.09;1789851;80;21510;-93
2021/01/29 12:17:58;;;;;;;20.00;12.07;;;;;;;3.02;63.50;94825.55;1775609;80;21167;-95
2021/01/29 12:20:36;;;;;;;21.90;13.30;;;;;;;3.03;64.06;94822.41;1780730;79;21086;-93
2021/01/29 12:23:51;;;;;;;20.55;12.20;;;;;;;3.22;64.63;94821.97;1809947;78;21192;-93
2021/01/29 12:26:35;;;;;;;20.27;11.80;;;;;;;3.43;64.74;94815.50;1781357;79;21088;-92
2021/01/29 12:29:29;;;;;;;19.92;11.95;;;;;;;3.50;63.98;94812.55;1797883;79;21190;-92
2021/01/29 12:32:24;;;;;;;19.23;12.10;;;;;;;3.37;63.71;94808.73;1789396;79;21483;-94
2021/01/29 12:35:26;;;;;;;19.27;12.03;;;;;;;3.23;63.74;94811.75;1777305;80;21225;-93
2021/01/29 12:38:35;;;;;;;22.22;12.73;;;;;;;3.11;63.95;94807.43;1787256;80;21148;-93
2021/01/29 12:41:19;;;;;;;17.65;11.45;;;;;;;3.06;64.18;94796.45;1765395;80;21138;-94
2021/01/29 12:44:26;;;;;;;19.45;11.55;;;;;;;3.02;64.38;94795.98;1782999;80;21114;-93
2021/01/29 12:47:03;;;;;;;21.60;12.70;;;;;;;3.02;64.35;94794.66;1765282;80;21142;-92
2021/01/29 12:50:03;;;;;;;20.05;11.88;;;;;;;2.94;64.42;94791.57;1762259;80;21253;-93
2021/01/29 12:52:41;;;;;;;16.27;9.43;;;;;;;2.87;64.62;94784.58;1755146;80;21122;-95
2021/01/29 12:55:17;;;;;;;20.80;11.73;;;;;;;2.89;64.77;94785.61;1758849;80;21111;-96
2021/01/29 12:57:48;;;;;;;20.68;11.48;;;;;;;2.92;64.93;94785.05;1778951;80;21110;-94
2021/01/29 13:00:27;;;;;;;18.87;11.75;;;;;;;2.89;64.59;94783.77;1776467;80;21108;-95
2021/01/29 13:02:59;;;;;;;22.93;12.68;;;;;;;2.69;63.83;94782.63;1772515;80;21530;-93